sensor_id;sensor_type;location;lat;lon;timestamp;P1;durP1;ratioP1;P2;durP2;ratioP2
64615;SDS011;51027;42.162;24.754;2024-03-06T04:33:05;30.52;;;15.35;;
64615;SDS011;51027;42.162;24.754;2024-03-06T04:35:30;28.13;;;13.55;;
64615;SDS011;51027;42.162;24.754;2024-03-06T04:37:56;27.02;;;13.05;;
64615;SDS011;51027;42.162;24.754;2024-03-06T04:40:21;33.63;;;14.05;;
64615;SDS011;51027;42.162;24.754;2024-03-06T04:42:47;30.77;;;14.52;;
64615;SDS011;51027;42.162;24.754;2024-03-06T04:45:16;28.77;;;13.75;;
64615;SDS011;51027;42.162;24.754;2024-03-06T04:47:43;30.27;;;14.65;;
64615;SDS011;51027;42.162;24.754;2024-03-06T04:50:11;31.38;;;14.63;;
64615;SDS011;51027;42.162;24.754;2024-03-06T04:52:39;31.40;;;15.07;;
64615;SDS011;51027;42.162;24.754;2024-03-06T04:55:05;34.75;;;16.48;;
64615;SDS011;51027;42.162;24.754;2024-03-06T04:57:32;33.08;;;14.75;;
64615;SDS011;51027;42.162;24.754;2024-03-06T04:59:58;27.50;;;12.20;;
64615;SDS011;51027;42.162;24.754;2024-03-06T05:02:30;25.88;;;11.40;;
64615;SDS011;51027;42.162;24.754;2024-03-06T05:04:59;27.88;;;13.07;;
64615;SDS011;51027;42.162;24.754;2024-03-06T05:07:27;26.40;;;13.18;;
64615;SDS011;51027;42.162;24.754;2024-03-06T05:09:54;27.83;;;14.40;;
64615;SDS011;51027;42.162;24.754;2024-03-06T05:12:20;26.65;;;13.07;;
64615;SDS011;51027;42.162;24.754;2024-03-06T05:14:45;27.38;;;11.70;;
64615;SDS011;51027;42.162;24.754;2024-03-06T05:17:11;28.20;;;12.43;;
64615;SDS011;51027;42.162;24.754;2024-03-06T05:19:36;26.83;;;12.55;;
64615;SDS011;51027;42.162;24.754;2024-03-06T05:22:02;23.23;;;10.43;;
64615;SDS011;51027;42.162;24.754;2024-03-06T05:24:28;28.52;;;10.85;;
64615;SDS011;51027;42.162;24.754;2024-03-06T05:26:54;21.98;;;10.00;;
64615;SDS011;51027;42.162;24.754;2024-03-06T05:29:19;24.70;;;11.18;;
64615;SDS011;51027;42.162;24.754;2024-03-06T05:31:45;24.75;;;11.75;;
64615;SDS011;51027;42.162;24.754;2024-03-06T05:34:10;24.23;;;11.07;;
64615;SDS011;51027;42.162;24.754;2024-03-06T05:36:36;27.60;;;10.98;;
64615;SDS011;51027;42.162;24.754;2024-03-06T05:39:04;27.08;;;11.50;;
64615;SDS011;51027;42.162;24.754;2024-03-06T05:41:37;24.23;;;10.82;;
64615;SDS011;51027;42.162;24.754;2024-03-06T05:44:06;25.30;;;10.37;;
64615;SDS011;51027;42.162;24.754;2024-03-06T05:46:31;28.35;;;12.63;;
64615;SDS011;51027;42.162;24.754;2024-03-06T05:48:57;25.40;;;12.02;;
64615;SDS011;51027;42.162;24.754;2024-03-06T05:51:23;25.85;;;10.90;;
64615;SDS011;51027;42.162;24.754;2024-03-06T05:53:48;26.45;;;11.75;;
64615;SDS011;51027;42.162;24.754;2024-03-06T05:56:13;26.25;;;11.48;;
64615;SDS011;51027;42.162;24.754;2024-03-06T05:58:39;24.75;;;12.00;;
64615;SDS011;51027;42.162;24.754;2024-03-06T06:01:04;22.00;;;9.52;;
64615;SDS011;51027;42.162;24.754;2024-03-06T06:03:30;22.23;;;9.40;;
64615;SDS011;51027;42.162;24.754;2024-03-06T06:05:55;20.65;;;9.65;;
64615;SDS011;51027;42.162;24.754;2024-03-06T06:08:21;22.20;;;10.27;;
64615;SDS011;51027;42.162;24.754;2024-03-06T06:10:47;23.45;;;10.10;;
64615;SDS011;51027;42.162;24.754;2024-03-06T06:13:13;26.45;;;11.45;;
64615;SDS011;51027;42.162;24.754;2024-03-06T06:15:38;24.65;;;10.63;;
64615;SDS011;51027;42.162;24.754;2024-03-06T06:18:04;22.98;;;10.43;;
64615;SDS011;51027;42.162;24.754;2024-03-06T06:20:29;22.13;;;9.93;;
64615;SDS011;51027;42.162;24.754;2024-03-06T06:22:55;27.83;;;12.00;;
64615;SDS011;51027;42.162;24.754;2024-03-06T06:25:20;24.17;;;10.02;;
64615;SDS011;51027;42.162;24.754;2024-03-06T06:27:46;22.58;;;8.52;;
64615;SDS011;51027;42.162;24.754;2024-03-06T06:30:11;21.25;;;9.50;;
64615;SDS011;51027;42.162;24.754;2024-03-06T06:32:40;24.48;;;11.02;;
64615;SDS011;51027;42.162;24.754;2024-03-06T06:35:06;22.55;;;9.90;;
64615;SDS011;51027;42.162;24.754;2024-03-06T06:37:33;24.70;;;10.40;;
64615;SDS011;51027;42.162;24.754;2024-03-06T06:39:59;25.50;;;11.43;;
64615;SDS011;51027;42.162;24.754;2024-03-06T06:42:24;24.70;;;11.38;;
64615;SDS011;51027;42.162;24.754;2024-03-06T06:44:50;22.35;;;11.05;;
64615;SDS011;51027;42.162;24.754;2024-03-06T06:47:16;24.60;;;10.57;;
64615;SDS011;51027;42.162;24.754;2024-03-06T06:49:42;23.63;;;10.50;;
64615;SDS011;51027;42.162;24.754;2024-03-06T06:52:11;25.52;;;10.05;;
64615;SDS011;51027;42.162;24.754;2024-03-06T06:54:37;22.42;;;10.02;;
64615;SDS011;51027;42.162;24.754;2024-03-06T06:57:02;24.65;;;10.50;;
64615;SDS011;51027;42.162;24.754;2024-03-06T06:59:28;22.35;;;10.63;;
64615;SDS011;51027;42.162;24.754;2024-03-06T07:01:53;24.23;;;10.75;;
64615;SDS011;51027;42.162;24.754;2024-03-06T07:04:19;22.23;;;9.52;;
64615;SDS011;51027;42.162;24.754;2024-03-06T07:06:45;21.63;;;9.55;;
64615;SDS011;51027;42.162;24.754;2024-03-06T07:09:11;20.60;;;8.55;;
64615;SDS011;51027;42.162;24.754;2024-03-06T07:11:37;23.58;;;10.00;;
64615;SDS011;51027;42.162;24.754;2024-03-06T07:14:02;19.55;;;9.25;;
64615;SDS011;51027;42.162;24.754;2024-03-06T07:16:28;21.30;;;9.15;;
64615;SDS011;51027;42.162;24.754;2024-03-06T07:18:53;20.10;;;8.77;;
64615;SDS011;51027;42.162;24.754;2024-03-06T07:21:18;21.30;;;9.30;;
64615;SDS011;51027;42.162;24.754;2024-03-06T07:23:44;21.70;;;9.55;;
64615;SDS011;51027;42.162;24.754;2024-03-06T07:26:09;19.75;;;9.35;;
64615;SDS011;51027;42.162;24.754;2024-03-06T07:28:35;22.30;;;9.88;;
64615;SDS011;51027;42.162;24.754;2024-03-06T07:31:02;24.05;;;10.30;;
64615;SDS011;51027;42.162;24.754;2024-03-06T07:33:27;23.55;;;9.60;;
64615;SDS011;51027;42.162;24.754;2024-03-06T07:35:53;20.58;;;9.40;;
64615;SDS011;51027;42.162;24.754;2024-03-06T07:38:18;21.50;;;9.27;;
64615;SDS011;51027;42.162;24.754;2024-03-06T07:40:44;24.80;;;9.63;;
64615;SDS011;51027;42.162;24.754;2024-03-06T07:43:10;22.10;;;9.18;;
64615;SDS011;51027;42.162;24.754;2024-03-06T07:45:36;23.00;;;9.32;;
64615;SDS011;51027;42.162;24.754;2024-03-06T07:48:01;23.38;;;8.77;;
64615;SDS011;51027;42.162;24.754;2024-03-06T07:50:27;21.45;;;8.68;;
64615;SDS011;51027;42.162;24.754;2024-03-06T07:52:52;19.98;;;8.27;;
64615;SDS011;51027;42.162;24.754;2024-03-06T07:55:19;19.90;;;7.85;;
64615;SDS011;51027;42.162;24.754;2024-03-06T07:57:46;19.40;;;8.75;;
64615;SDS011;51027;42.162;24.754;2024-03-06T08:00:12;19.75;;;8.18;;
64615;SDS011;51027;42.162;24.754;2024-03-06T08:02:44;19.92;;;8.15;;
64615;SDS011;51027;42.162;24.754;2024-03-06T08:05:15;23.35;;;8.45;;
64615;SDS011;51027;42.162;24.754;2024-03-06T08:07:41;20.88;;;8.43;;
64615;SDS011;51027;42.162;24.754;2024-03-06T08:10:10;18.60;;;7.90;;
64615;SDS011;51027;42.162;24.754;2024-03-06T08:12:43;20.00;;;7.95;;
64615;SDS011;51027;42.162;24.754;2024-03-06T08:15:11;23.27;;;8.30;;
64615;SDS011;51027;42.162;24.754;2024-03-06T08:17:38;19.88;;;8.02;;
64615;SDS011;51027;42.162;24.754;2024-03-06T08:20:06;18.20;;;7.53;;
64615;SDS011;51027;42.162;24.754;2024-03-06T08:22:37;22.00;;;9.02;;
64615;SDS011;51027;42.162;24.754;2024-03-06T08:25:12;22.33;;;8.63;;
64615;SDS011;51027;42.162;24.754;2024-03-06T08:27:41;20.48;;;8.25;;
64615;SDS011;51027;42.162;24.754;2024-03-06T08:30:07;19.15;;;7.43;;
64615;SDS011;51027;42.162;24.754;2024-03-06T08:32:34;18.45;;;7.60;;
64615;SDS011;51027;42.162;24.754;2024-03-06T08:35:02;18.88;;;7.32;;
64615;SDS011;51027;42.162;24.754;2024-03-06T08:37:28;19.45;;;7.55;;
64615;SDS011;51027;42.162;24.754;2024-03-06T08:39:53;18.98;;;7.72;;
64615;SDS011;51027;42.162;24.754;2024-03-06T08:42:18;20.42;;;7.68;;
64615;SDS011;51027;42.162;24.754;2024-03-06T08:44:44;17.20;;;7.18;;
64615;SDS011;51027;42.162;24.754;2024-03-06T08:47:10;19.95;;;7.40;;
64615;SDS011;51027;42.162;24.754;2024-03-06T08:49:36;19.48;;;8.27;;
64615;SDS011;51027;42.162;24.754;2024-03-06T08:52:02;21.48;;;7.93;;
64615;SDS011;51027;42.162;24.754;2024-03-06T08:54:27;17.13;;;6.88;;
64615;SDS011;51027;42.162;24.754;2024-03-06T08:56:53;19.08;;;7.20;;
64615;SDS011;51027;42.162;24.754;2024-03-06T09:01:49;20.80;;;7.88;;
64615;SDS011;51027;42.162;24.754;2024-03-06T09:04:17;17.27;;;7.38;;
64615;SDS011;51027;42.162;24.754;2024-03-06T09:06:42;19.35;;;7.57;;
64615;SDS011;51027;42.162;24.754;2024-03-06T09:09:08;19.42;;;7.88;;
64615;SDS011;51027;42.162;24.754;2024-03-06T09:11:34;17.48;;;7.40;;
64615;SDS011;51027;42.162;24.754;2024-03-06T09:14:00;19.75;;;7.43;;
64615;SDS011;51027;42.162;24.754;2024-03-06T09:16:26;17.10;;;7.32;;
64615;SDS011;51027;42.162;24.754;2024-03-06T09:18:51;18.75;;;8.20;;
64615;SDS011;51027;42.162;24.754;2024-03-06T09:21:17;22.58;;;8.15;;
64615;SDS011;51027;42.162;24.754;2024-03-06T09:23:42;20.35;;;7.82;;
64615;SDS011;51027;42.162;24.754;2024-03-06T09:26:08;18.23;;;6.97;;
64615;SDS011;51027;42.162;24.754;2024-03-06T09:28:33;18.70;;;7.45;;
64615;SDS011;51027;42.162;24.754;2024-03-06T09:30:59;17.80;;;6.85;;
64615;SDS011;51027;42.162;24.754;2024-03-06T09:33:25;17.83;;;8.23;;
64615;SDS011;51027;42.162;24.754;2024-03-06T09:35:50;18.95;;;7.70;;
64615;SDS011;51027;42.162;24.754;2024-03-06T09:38:16;15.63;;;6.60;;
64615;SDS011;51027;42.162;24.754;2024-03-06T09:40:41;19.27;;;7.40;;
64615;SDS011;51027;42.162;24.754;2024-03-06T09:43:07;18.33;;;6.78;;
64615;SDS011;51027;42.162;24.754;2024-03-06T09:45:32;17.98;;;6.38;;
64615;SDS011;51027;42.162;24.754;2024-03-06T09:47:58;17.48;;;6.60;;
64615;SDS011;51027;42.162;24.754;2024-03-06T09:50:24;18.67;;;6.55;;
64615;SDS011;51027;42.162;24.754;2024-03-06T09:52:51;17.58;;;6.63;;
64615;SDS011;51027;42.162;24.754;2024-03-06T09:55:19;18.73;;;7.28;;
64615;SDS011;51027;42.162;24.754;2024-03-06T09:57:45;20.08;;;7.90;;
64615;SDS011;51027;42.162;24.754;2024-03-06T10:00:11;18.20;;;7.78;;
64615;SDS011;51027;42.162;24.754;2024-03-06T10:02:51;18.10;;;7.68;;
64615;SDS011;51027;42.162;24.754;2024-03-06T10:05:29;18.55;;;7.43;;
64615;SDS011;51027;42.162;24.754;2024-03-06T10:08:00;17.95;;;7.05;;
64615;SDS011;51027;42.162;24.754;2024-03-06T10:10:26;19.83;;;7.28;;
64615;SDS011;51027;42.162;24.754;2024-03-06T10:12:52;18.83;;;7.18;;
64615;SDS011;51027;42.162;24.754;2024-03-06T10:15:18;17.25;;;6.57;;
64615;SDS011;51027;42.162;24.754;2024-03-06T10:17:44;17.35;;;6.72;;
64615;SDS011;51027;42.162;24.754;2024-03-06T10:20:20;18.15;;;6.82;;
64615;SDS011;51027;42.162;24.754;2024-03-06T10:22:51;18.13;;;7.38;;
64615;SDS011;51027;42.162;24.754;2024-03-06T10:25:20;18.05;;;7.30;;
64615;SDS011;51027;42.162;24.754;2024-03-06T10:28:01;17.98;;;7.07;;
64615;SDS011;51027;42.162;24.754;2024-03-06T10:30:28;18.67;;;7.50;;
64615;SDS011;51027;42.162;24.754;2024-03-06T10:32:53;16.55;;;6.88;;
64615;SDS011;51027;42.162;24.754;2024-03-06T10:35:20;18.40;;;6.93;;
64615;SDS011;51027;42.162;24.754;2024-03-06T10:37:46;19.40;;;7.45;;
64615;SDS011;51027;42.162;24.754;2024-03-06T10:40:12;17.75;;;6.60;;
64615;SDS011;51027;42.162;24.754;2024-03-06T10:42:41;17.88;;;6.93;;
64615;SDS011;51027;42.162;24.754;2024-03-06T10:45:07;16.90;;;7.07;;
64615;SDS011;51027;42.162;24.754;2024-03-06T10:47:37;19.10;;;7.72;;
64615;SDS011;51027;42.162;24.754;2024-03-06T10:50:05;16.10;;;6.75;;
64615;SDS011;51027;42.162;24.754;2024-03-06T10:52:35;16.35;;;6.88;;
64615;SDS011;51027;42.162;24.754;2024-03-06T10:55:03;17.75;;;6.50;;
64615;SDS011;51027;42.162;24.754;2024-03-06T10:57:29;19.05;;;6.50;;
64615;SDS011;51027;42.162;24.754;2024-03-06T10:59:56;18.83;;;7.43;;
64615;SDS011;51027;42.162;24.754;2024-03-06T11:02:24;18.45;;;7.45;;
64615;SDS011;51027;42.162;24.754;2024-03-06T11:04:52;19.30;;;7.60;;
64615;SDS011;51027;42.162;24.754;2024-03-06T11:07:18;19.95;;;7.22;;
64615;SDS011;51027;42.162;24.754;2024-03-06T11:09:44;17.38;;;7.28;;
64615;SDS011;51027;42.162;24.754;2024-03-06T11:12:31;18.35;;;6.70;;
64615;SDS011;51027;42.162;24.754;2024-03-06T11:14:57;18.60;;;7.13;;
64615;SDS011;51027;42.162;24.754;2024-03-06T11:17:25;16.58;;;6.80;;
64615;SDS011;51027;42.162;24.754;2024-03-06T11:28:21;16.35;;;5.82;;
64615;SDS011;51027;42.162;24.754;2024-03-06T11:30:48;16.73;;;6.55;;
64615;SDS011;51027;42.162;24.754;2024-03-06T11:36:23;17.90;;;7.78;;
64615;SDS011;51027;42.162;24.754;2024-03-06T11:41:31;18.35;;;7.53;;
64615;SDS011;51027;42.162;24.754;2024-03-06T11:44:15;18.95;;;7.97;;
64615;SDS011;51027;42.162;24.754;2024-03-06T11:46:48;18.33;;;7.47;;
64615;SDS011;51027;42.162;24.754;2024-03-06T11:49:15;18.10;;;7.80;;
64615;SDS011;51027;42.162;24.754;2024-03-06T11:51:53;19.52;;;8.07;;
64615;SDS011;51027;42.162;24.754;2024-03-06T11:54:23;19.42;;;8.52;;
64615;SDS011;51027;42.162;24.754;2024-03-06T11:56:51;19.58;;;8.25;;
64615;SDS011;51027;42.162;24.754;2024-03-06T11:59:52;19.02;;;8.38;;
64615;SDS011;51027;42.162;24.754;2024-03-06T12:02:11;18.73;;;7.90;;
64615;SDS011;51027;42.162;24.754;2024-03-06T12:04:40;18.08;;;8.23;;
64615;SDS011;51027;42.162;24.754;2024-03-06T12:07:06;23.67;;;10.83;;
64615;SDS011;51027;42.162;24.754;2024-03-06T12:09:34;21.88;;;9.20;;
64615;SDS011;51027;42.162;24.754;2024-03-06T12:12:00;22.15;;;9.57;;
64615;SDS011;51027;42.162;24.754;2024-03-06T12:14:27;20.90;;;9.57;;
64615;SDS011;51027;42.162;24.754;2024-03-06T12:16:59;20.55;;;9.52;;
64615;SDS011;51027;42.162;24.754;2024-03-06T12:19:31;20.75;;;9.45;;
64615;SDS011;51027;42.162;24.754;2024-03-06T12:22:00;19.58;;;9.13;;
64615;SDS011;51027;42.162;24.754;2024-03-06T12:24:28;20.15;;;9.02;;
64615;SDS011;51027;42.162;24.754;2024-03-06T12:27:00;21.65;;;9.55;;
64615;SDS011;51027;42.162;24.754;2024-03-06T12:29:28;22.38;;;9.40;;
64615;SDS011;51027;42.162;24.754;2024-03-06T12:31:57;22.58;;;9.98;;
64615;SDS011;51027;42.162;24.754;2024-03-06T12:34:23;21.52;;;9.63;;
64615;SDS011;51027;42.162;24.754;2024-03-06T12:36:49;24.30;;;11.77;;
64615;SDS011;51027;42.162;24.754;2024-03-06T12:39:15;21.52;;;9.73;;
64615;SDS011;51027;42.162;24.754;2024-03-06T12:41:46;20.70;;;9.60;;
64615;SDS011;51027;42.162;24.754;2024-03-06T12:44:11;22.17;;;10.52;;
64615;SDS011;51027;42.162;24.754;2024-03-06T12:46:36;21.75;;;10.13;;
64615;SDS011;51027;42.162;24.754;2024-03-06T12:49:02;24.30;;;10.77;;
64615;SDS011;51027;42.162;24.754;2024-03-06T12:51:27;23.90;;;10.48;;
64615;SDS011;51027;42.162;24.754;2024-03-06T12:53:53;19.60;;;9.25;;
64615;SDS011;51027;42.162;24.754;2024-03-06T12:56:18;23.00;;;10.23;;
64615;SDS011;51027;42.162;24.754;2024-03-06T12:58:44;23.23;;;11.02;;
64615;SDS011;51027;42.162;24.754;2024-03-06T13:01:09;24.98;;;10.95;;
64615;SDS011;51027;42.162;24.754;2024-03-06T13:03:38;23.10;;;10.40;;
64615;SDS011;51027;42.162;24.754;2024-03-06T13:06:03;22.92;;;9.95;;
64615;SDS011;51027;42.162;24.754;2024-03-06T13:08:30;21.95;;;9.85;;
64615;SDS011;51027;42.162;24.754;2024-03-06T13:10:55;19.88;;;9.70;;
64615;SDS011;51027;42.162;24.754;2024-03-06T13:13:21;21.85;;;10.30;;
64615;SDS011;51027;42.162;24.754;2024-03-06T13:15:49;21.05;;;10.00;;
64615;SDS011;51027;42.162;24.754;2024-03-06T13:18:15;24.88;;;10.30;;
64615;SDS011;51027;42.162;24.754;2024-03-06T13:20:41;24.15;;;10.05;;
64615;SDS011;51027;42.162;24.754;2024-03-06T13:23:06;23.65;;;9.90;;
64615;SDS011;51027;42.162;24.754;2024-03-06T13:25:31;22.52;;;9.98;;
64615;SDS011;51027;42.162;24.754;2024-03-06T13:27:57;23.10;;;10.65;;
64615;SDS011;51027;42.162;24.754;2024-03-06T13:30:22;21.95;;;9.52;;
64615;SDS011;51027;42.162;24.754;2024-03-06T13:32:49;23.13;;;10.23;;
64615;SDS011;51027;42.162;24.754;2024-03-06T13:35:16;21.45;;;9.48;;
64615;SDS011;51027;42.162;24.754;2024-03-06T13:37:42;20.08;;;9.30;;
64615;SDS011;51027;42.162;24.754;2024-03-06T13:40:08;23.52;;;11.20;;
64615;SDS011;51027;42.162;24.754;2024-03-06T13:42:36;21.98;;;10.68;;
64615;SDS011;51027;42.162;24.754;2024-03-06T13:45:03;20.00;;;8.98;;
64615;SDS011;51027;42.162;24.754;2024-03-06T13:47:29;22.25;;;9.32;;
64615;SDS011;51027;42.162;24.754;2024-03-06T13:49:55;19.55;;;8.50;;
64615;SDS011;51027;42.162;24.754;2024-03-06T13:52:21;23.85;;;10.23;;
64615;SDS011;51027;42.162;24.754;2024-03-06T13:54:48;23.83;;;9.68;;
64615;SDS011;51027;42.162;24.754;2024-03-06T13:57:14;20.45;;;9.63;;
64615;SDS011;51027;42.162;24.754;2024-03-06T13:59:39;21.48;;;9.48;;
64615;SDS011;51027;42.162;24.754;2024-03-06T14:02:05;20.75;;;8.80;;
64615;SDS011;51027;42.162;24.754;2024-03-06T14:04:31;20.90;;;9.45;;
64615;SDS011;51027;42.162;24.754;2024-03-06T14:06:57;21.40;;;8.82;;
64615;SDS011;51027;42.162;24.754;2024-03-06T14:09:23;19.48;;;8.50;;
64615;SDS011;51027;42.162;24.754;2024-03-06T14:11:50;22.00;;;8.77;;
64615;SDS011;51027;42.162;24.754;2024-03-06T14:14:16;20.45;;;9.02;;
64615;SDS011;51027;42.162;24.754;2024-03-06T14:16:41;20.77;;;9.10;;
64615;SDS011;51027;42.162;24.754;2024-03-06T14:19:07;19.40;;;8.25;;
64615;SDS011;51027;42.162;24.754;2024-03-06T14:21:33;23.40;;;9.05;;
64615;SDS011;51027;42.162;24.754;2024-03-06T14:24:00;20.98;;;8.27;;
64615;SDS011;51027;42.162;24.754;2024-03-06T14:26:29;25.63;;;9.23;;
64615;SDS011;51027;42.162;24.754;2024-03-06T14:28:55;20.88;;;9.13;;
64615;SDS011;51027;42.162;24.754;2024-03-06T14:31:22;20.17;;;9.13;;
64615;SDS011;51027;42.162;24.754;2024-03-06T14:33:47;21.15;;;7.78;;
64615;SDS011;51027;42.162;24.754;2024-03-06T14:36:14;19.27;;;7.43;;
64615;SDS011;51027;42.162;24.754;2024-03-06T14:38:39;20.25;;;6.88;;
64615;SDS011;51027;42.162;24.754;2024-03-06T14:41:05;17.45;;;6.88;;
64615;SDS011;51027;42.162;24.754;2024-03-06T14:43:32;20.27;;;7.22;;
64615;SDS011;51027;42.162;24.754;2024-03-06T14:45:59;19.38;;;7.28;;
64615;SDS011;51027;42.162;24.754;2024-03-06T14:48:25;18.17;;;7.30;;
64615;SDS011;51027;42.162;24.754;2024-03-06T14:50:50;21.48;;;7.63;;
64615;SDS011;51027;42.162;24.754;2024-03-06T14:53:16;20.25;;;8.00;;
64615;SDS011;51027;42.162;24.754;2024-03-06T14:55:42;23.20;;;8.38;;
64615;SDS011;51027;42.162;24.754;2024-03-06T14:58:07;19.67;;;8.05;;
64615;SDS011;51027;42.162;24.754;2024-03-06T15:00:33;19.05;;;7.78;;
64615;SDS011;51027;42.162;24.754;2024-03-06T15:02:58;17.33;;;6.60;;
64615;SDS011;51027;42.162;24.754;2024-03-06T15:05:26;18.10;;;5.88;;
64615;SDS011;51027;42.162;24.754;2024-03-06T15:07:52;18.55;;;6.82;;
64615;SDS011;51027;42.162;24.754;2024-03-06T15:10:17;19.30;;;7.15;;
64615;SDS011;51027;42.162;24.754;2024-03-06T15:12:42;16.27;;;6.40;;
64615;SDS011;51027;42.162;24.754;2024-03-06T15:15:09;20.58;;;7.15;;
64615;SDS011;51027;42.162;24.754;2024-03-06T15:17:35;18.50;;;6.60;;
64615;SDS011;51027;42.162;24.754;2024-03-06T15:20:04;18.58;;;6.78;;
64615;SDS011;51027;42.162;24.754;2024-03-06T15:22:34;18.67;;;7.13;;
64615;SDS011;51027;42.162;24.754;2024-03-06T15:25:06;16.77;;;6.50;;
64615;SDS011;51027;42.162;24.754;2024-03-06T15:27:36;17.48;;;5.90;;
64615;SDS011;51027;42.162;24.754;2024-03-06T15:30:05;17.67;;;6.78;;
64615;SDS011;51027;42.162;24.754;2024-03-06T15:32:36;15.38;;;6.53;;
64615;SDS011;51027;42.162;24.754;2024-03-06T15:35:03;17.88;;;6.65;;
64615;SDS011;51027;42.162;24.754;2024-03-06T15:37:30;17.17;;;7.07;;
64615;SDS011;51027;42.162;24.754;2024-03-06T15:39:57;18.33;;;6.97;;
64615;SDS011;51027;42.162;24.754;2024-03-06T15:42:23;20.27;;;6.68;;
64615;SDS011;51027;42.162;24.754;2024-03-06T15:44:50;18.83;;;7.10;;
64615;SDS011;51027;42.162;24.754;2024-03-06T15:47:17;25.92;;;10.48;;
64615;SDS011;51027;42.162;24.754;2024-03-06T15:49:43;18.40;;;7.63;;
64615;SDS011;51027;42.162;24.754;2024-03-06T15:52:12;18.90;;;8.23;;
64615;SDS011;51027;42.162;24.754;2024-03-06T15:54:38;19.10;;;8.02;;
64615;SDS011;51027;42.162;24.754;2024-03-06T15:57:04;19.90;;;8.52;;
64615;SDS011;51027;42.162;24.754;2024-03-06T15:59:32;21.42;;;8.65;;
64615;SDS011;51027;42.162;24.754;2024-03-06T16:01:58;20.60;;;8.73;;
64615;SDS011;51027;42.162;24.754;2024-03-06T16:04:24;20.02;;;8.20;;
64615;SDS011;51027;42.162;24.754;2024-03-06T16:06:50;20.73;;;9.63;;
64615;SDS011;51027;42.162;24.754;2024-03-06T16:09:16;23.70;;;9.82;;
64615;SDS011;51027;42.162;24.754;2024-03-06T16:11:42;23.90;;;11.02;;
64615;SDS011;51027;42.162;24.754;2024-03-06T16:14:07;24.80;;;10.38;;
64615;SDS011;51027;42.162;24.754;2024-03-06T16:16:33;20.27;;;9.90;;
64615;SDS011;51027;42.162;24.754;2024-03-06T16:18:58;19.00;;;8.05;;
64615;SDS011;51027;42.162;24.754;2024-03-06T16:21:24;23.05;;;10.30;;
64615;SDS011;51027;42.162;24.754;2024-03-06T16:23:50;23.77;;;11.43;;
64615;SDS011;51027;42.162;24.754;2024-03-06T16:26:17;27.65;;;12.20;;
64615;SDS011;51027;42.162;24.754;2024-03-06T16:28:43;24.77;;;11.57;;
64615;SDS011;51027;42.162;24.754;2024-03-06T16:31:10;21.63;;;11.02;;
64615;SDS011;51027;42.162;24.754;2024-03-06T16:33:35;21.35;;;10.55;;
64615;SDS011;51027;42.162;24.754;2024-03-06T16:36:01;24.13;;;11.75;;
64615;SDS011;51027;42.162;24.754;2024-03-06T16:38:26;21.88;;;10.00;;
64615;SDS011;51027;42.162;24.754;2024-03-06T16:40:52;22.10;;;10.02;;
64615;SDS011;51027;42.162;24.754;2024-03-06T16:43:18;23.40;;;9.93;;
64615;SDS011;51027;42.162;24.754;2024-03-06T16:45:44;22.65;;;9.95;;
64615;SDS011;51027;42.162;24.754;2024-03-06T16:48:09;20.00;;;9.60;;
64615;SDS011;51027;42.162;24.754;2024-03-06T16:50:38;20.15;;;9.43;;
64615;SDS011;51027;42.162;24.754;2024-03-06T16:53:03;24.92;;;10.35;;
64615;SDS011;51027;42.162;24.754;2024-03-06T16:55:31;18.00;;;8.73;;
64615;SDS011;51027;42.162;24.754;2024-03-06T16:57:57;20.60;;;9.43;;
64615;SDS011;51027;42.162;24.754;2024-03-06T17:00:23;18.55;;;9.35;;
64615;SDS011;51027;42.162;24.754;2024-03-06T17:02:49;22.50;;;9.10;;
64615;SDS011;51027;42.162;24.754;2024-03-06T17:05:14;18.77;;;7.40;;
64615;SDS011;51027;42.162;24.754;2024-03-06T17:07:40;18.50;;;7.05;;
64615;SDS011;51027;42.162;24.754;2024-03-06T17:10:07;16.50;;;6.97;;
64615;SDS011;51027;42.162;24.754;2024-03-06T17:12:34;19.02;;;7.50;;
64615;SDS011;51027;42.162;24.754;2024-03-06T17:14:59;19.25;;;7.80;;
64615;SDS011;51027;42.162;24.754;2024-03-06T17:17:25;19.63;;;8.10;;
64615;SDS011;51027;42.162;24.754;2024-03-06T17:19:50;17.48;;;7.32;;
64615;SDS011;51027;42.162;24.754;2024-03-06T17:22:16;19.88;;;8.68;;
64615;SDS011;51027;42.162;24.754;2024-03-06T17:24:41;21.50;;;8.43;;
64615;SDS011;51027;42.162;24.754;2024-03-06T17:27:07;19.58;;;8.40;;
64615;SDS011;51027;42.162;24.754;2024-03-06T17:29:32;20.77;;;8.75;;
64615;SDS011;51027;42.162;24.754;2024-03-06T17:31:58;20.58;;;9.23;;
64615;SDS011;51027;42.162;24.754;2024-03-06T17:34:23;18.88;;;8.30;;
64615;SDS011;51027;42.162;24.754;2024-03-06T17:36:49;18.65;;;8.30;;
64615;SDS011;51027;42.162;24.754;2024-03-06T17:39:14;21.35;;;8.63;;
64615;SDS011;51027;42.162;24.754;2024-03-06T17:41:43;20.60;;;9.38;;
64615;SDS011;51027;42.162;24.754;2024-03-06T17:44:09;24.80;;;10.13;;
64615;SDS011;51027;42.162;24.754;2024-03-06T17:46:35;20.98;;;8.73;;
64615;SDS011;51027;42.162;24.754;2024-03-06T17:49:00;21.95;;;9.15;;
64615;SDS011;51027;42.162;24.754;2024-03-06T17:51:32;20.33;;;8.50;;
64615;SDS011;51027;42.162;24.754;2024-03-06T17:54:01;22.88;;;10.25;;
64615;SDS011;51027;42.162;24.754;2024-03-06T17:56:28;20.23;;;9.13;;
64615;SDS011;51027;42.162;24.754;2024-03-06T17:58:53;21.83;;;10.15;;
64615;SDS011;51027;42.162;24.754;2024-03-06T18:01:19;20.33;;;9.60;;
64615;SDS011;51027;42.162;24.754;2024-03-06T18:03:51;20.25;;;9.05;;
64615;SDS011;51027;42.162;24.754;2024-03-06T18:06:18;19.50;;;9.48;;
64615;SDS011;51027;42.162;24.754;2024-03-06T18:08:44;20.45;;;9.05;;
64615;SDS011;51027;42.162;24.754;2024-03-06T18:11:10;23.45;;;11.02;;
64615;SDS011;51027;42.162;24.754;2024-03-06T18:13:36;26.25;;;11.35;;
64615;SDS011;51027;42.162;24.754;2024-03-06T18:16:01;22.13;;;9.50;;
64615;SDS011;51027;42.162;24.754;2024-03-06T18:18:27;23.65;;;12.95;;
64615;SDS011;51027;42.162;24.754;2024-03-06T18:20:55;24.35;;;13.52;;
64615;SDS011;51027;42.162;24.754;2024-03-06T18:23:21;25.15;;;11.85;;
64615;SDS011;51027;42.162;24.754;2024-03-06T18:25:49;23.95;;;11.70;;
64615;SDS011;51027;42.162;24.754;2024-03-06T18:28:16;27.42;;;15.35;;
64615;SDS011;51027;42.162;24.754;2024-03-06T18:30:43;24.02;;;11.35;;
64615;SDS011;51027;42.162;24.754;2024-03-06T18:33:08;26.58;;;12.88;;
64615;SDS011;51027;42.162;24.754;2024-03-06T18:35:34;27.58;;;15.02;;
64615;SDS011;51027;42.162;24.754;2024-03-06T18:37:59;23.83;;;12.75;;
64615;SDS011;51027;42.162;24.754;2024-03-06T18:40:25;24.55;;;13.10;;
64615;SDS011;51027;42.162;24.754;2024-03-06T18:42:51;24.63;;;12.02;;
64615;SDS011;51027;42.162;24.754;2024-03-06T18:45:16;25.23;;;12.80;;
64615;SDS011;51027;42.162;24.754;2024-03-06T18:47:45;27.20;;;13.18;;
64615;SDS011;51027;42.162;24.754;2024-03-06T18:50:11;29.30;;;16.23;;
64615;SDS011;51027;42.162;24.754;2024-03-06T18:52:38;29.00;;;14.57;;
64615;SDS011;51027;42.162;24.754;2024-03-06T18:55:04;27.73;;;14.07;;
64615;SDS011;51027;42.162;24.754;2024-03-06T18:57:30;25.48;;;12.13;;
64615;SDS011;51027;42.162;24.754;2024-03-06T18:59:56;27.90;;;14.55;;
64615;SDS011;51027;42.162;24.754;2024-03-06T19:02:21;33.28;;;17.02;;
64615;SDS011;51027;42.162;24.754;2024-03-06T19:04:47;42.22;;;21.48;;